Walesville, New York
Current Conditions -  °F | °C
As of 4:00 PM on Tuesday 21 Oct 2014 (Local Time) from KRME Reporting Station
Overcast Overcast  
Wind Chill: 11°   Ceiling: 3700
Heat Index: 11°   Visibility: 10mi
Dew Point:   Wind: 5mph
Humidity: 86%   Direction: 120°ESE
Pressure: 29.91"   Gusts: NA
Location:  43.1203°N, 75.3249°W
Report Text: KRME 212000Z 12004KT 10SM SCT019 OVC037 11/09 A2991 RMK AO2 T01110089
Loading
Personal Weather Stations






























Interactive Weather Map
Tropical Storm Tracking
New forecast layout! Learn more

10-Day Weather Forecast

Advertisements
Track Severe Weather on mobile